Řízení letového provozu České republiky
Letiste: LKMT Aktualizace: 19.02.2018 12:04:05  UTC
 METAR LKMT 19.02. 12:00 ...
METAR LKMT 191200Z VRB01KT 8000 NSC M01/M03 Q1022 R04/710195 NOSIG=
 TAF LKMT 19.02. 11:00 ...
TAF LKMT 191100Z 1912/2018 17004KT 6000 NSC      BECMG 1912/1914 CAVOK      BECMG 1916/1918 VRB02KT      BECMG 1921/1923 3000 BR NSC      BECMG 1923/2002 1200 BR SCT005      TEMPO 2002/2007 0700 FZFG BKN004      BECMG 2004/2007 04008KT      BECMG 2007/2011 6000 BKN017      BECMG 2012/2014 CAVOK=